Time;durP1;ratioP1;P1;durP2;ratioP2;P2;SDS_P1;SDS_P2;PMS_P1;PMS_P2;Temp;Humidity;BMP_temperature;BMP_pressure;BME280_temperature;BME280_humidity;BME280_pressure;Samples;Min_cycle;Max_cycle;Signal;HPM_P1;HPM_P2
2023/05/05 00:00:19;;;;;;;20.93;17.87;;;18.50;1.00;;;;;;4933042;29;20162;-82
2023/05/05 00:02:52;;;;;;;17.97;16.13;;;18.50;4.00;;;;;;4940137;29;20146;-80
2023/05/05 00:05:19;;;;;;;17.40;15.57;;;18.60;6.90;;;;;;4938922;29;20179;-84
2023/05/05 00:07:47;;;;;;;21.13;17.03;;;18.50;5.80;;;;;;4934165;29;20194;-85
2023/05/05 00:10:16;;;;;;;19.57;17.47;;;18.50;11.70;;;;;;4925799;29;20164;-87
2023/05/05 00:12:41;;;;;;;20.63;18.63;;;18.50;15.20;;;;;;4919281;29;20571;-86
2023/05/05 00:15:07;;;;;;;20.77;18.67;;;18.50;18.90;;;;;;4919939;29;20211;-86
2023/05/05 00:17:34;;;;;;;19.80;17.70;;;18.50;19.20;;;;;;4921981;29;20185;-83
2023/05/05 00:20:00;;;;;;;19.90;17.90;;;18.50;22.00;;;;;;4924143;29;20196;-86
2023/05/05 00:22:27;;;;;;;19.30;17.40;;;18.40;20.80;;;;;;4940963;29;20217;-79
2023/05/05 00:24:54;;;;;;;19.73;17.63;;;18.40;14.90;;;;;;4941321;29;20174;-81
2023/05/05 00:27:20;;;;;;;20.23;18.10;;;18.40;16.20;;;;;;4941423;29;20174;-85
2023/05/05 00:29:46;;;;;;;18.93;17.03;;;18.50;15.60;;;;;;4937658;29;20222;-83
2023/05/05 00:32:18;;;;;;;18.27;16.40;;;18.50;16.80;;;;;;4935153;29;20226;-86
2023/05/05 00:34:58;;;;;;;17.40;15.80;;;18.30;19.80;;;;;;4921406;29;20198;-86
2023/05/05 00:37:24;;;;;;;17.47;13.23;;;18.10;26.20;;;;;;4922382;29;20166;-88
2023/05/05 00:39:50;;;;;;;11.57;10.37;;;18.20;22.90;;;;;;4920796;29;20581;-86
2023/05/05 00:42:16;;;;;;;13.33;11.73;;;18.10;16.30;;;;;;4920074;29;20667;-85
2023/05/05 00:44:43;;;;;;;13.20;10.13;;;18.10;14.60;;;;;;4919297;29;20213;-81
2023/05/05 00:47:11;;;;;;;10.93;8.73;;;18.00;13.20;;;;;;4918718;29;20184;-82
2023/05/05 00:49:38;;;;;;;8.83;8.03;;;17.90;15.00;;;;;;4920741;29;20535;-86
2023/05/05 00:52:06;;;;;;;8.40;7.60;;;17.70;16.40;;;;;;4920702;29;20165;-83
2023/05/05 00:54:33;;;;;;;9.07;7.67;;;17.50;19.90;;;;;;4920386;29;20202;-85
2023/05/05 00:57:01;;;;;;;7.10;6.40;;;17.40;20.80;;;;;;4918642;29;20173;-78
2023/05/05 00:59:31;;;;;;;8.00;5.97;;;17.30;22.00;;;;;;4919277;29;20221;-83
2023/05/05 01:01:57;;;;;;;6.80;6.10;;;17.50;15.70;;;;;;4918700;29;20195;-83
2023/05/05 01:04:26;;;;;;;8.53;6.23;;;17.40;14.70;;;;;;4923169;29;20177;-81
2023/05/05 01:06:59;;;;;;;6.10;5.50;;;17.60;10.50;;;;;;4926986;29;20204;-81
2023/05/05 01:09:49;;;;;;;5.97;5.37;;;17.50;12.00;;;;;;4927781;29;20207;-83
2023/05/05 01:12:40;;;;;;;5.80;4.50;;;17.50;5.80;;;;;;4924384;29;20189;-83
2023/05/05 01:15:27;;;;;;;6.30;4.70;;;17.40;10.00;;;;;;4918136;29;20209;-83
2023/05/05 01:18:31;;;;;;;5.90;4.23;;;17.20;14.80;;;;;;4918651;29;20168;-81
2023/05/05 01:21:07;;;;;;;5.47;4.50;;;17.10;16.90;;;;;;4918238;29;20544;-80
2023/05/05 01:23:51;;;;;;;6.77;4.40;;;17.10;17.90;;;;;;4917524;29;20181;-80
2023/05/05 01:26:38;;;;;;;7.47;4.80;;;17.00;20.00;;;;;;4918136;29;20185;-82
2023/05/05 01:29:35;;;;;;;4.33;3.93;;;17.10;20.40;;;;;;4916385;29;20188;-84
2023/05/05 01:32:05;;;;;;;4.43;3.70;;;17.00;18.30;;;;;;4917399;29;20540;-86
2023/05/05 01:34:41;;;;;;;5.07;3.90;;;17.00;18.40;;;;;;4917440;29;20194;-87
2023/05/05 01:37:23;;;;;;;5.10;3.70;;;17.00;19.30;;;;;;4917520;29;20630;-82
2023/05/05 01:39:54;;;;;;;6.70;3.50;;;17.10;15.10;;;;;;4917462;29;20235;-81
2023/05/05 01:42:21;;;;;;;6.03;3.70;;;17.10;10.60;;;;;;4917458;29;20182;-80
2023/05/05 01:44:47;;;;;;;4.50;3.80;;;17.00;15.20;;;;;;4917562;29;20178;-81
2023/05/05 01:47:18;;;;;;;7.40;3.40;;;17.00;15.00;;;;;;4916576;29;20184;-86
2023/05/05 01:49:46;;;;;;;4.60;3.53;;;16.90;18.20;;;;;;4919072;29;20187;-85
2023/05/05 01:52:14;;;;;;;4.10;3.60;;;16.90;20.80;;;;;;4922815;29;20173;-82
2023/05/05 01:54:45;;;;;;;4.00;3.60;;;17.00;17.50;;;;;;4921974;29;20217;-81
2023/05/05 01:57:13;;;;;;;4.83;3.43;;;17.20;14.50;;;;;;4923070;29;20178;-81
2023/05/05 01:59:38;;;;;;;5.73;3.60;;;17.20;13.70;;;;;;4930163;29;20173;-81
2023/05/05 02:02:09;;;;;;;5.13;3.97;;;17.30;10.40;;;;;;4928248;29;20180;-82
2023/05/05 02:04:37;;;;;;;6.80;4.50;;;17.40;9.70;;;;;;4930041;29;20171;-80
2023/05/05 02:07:04;;;;;;;7.43;3.93;;;17.40;5.80;;;;;;4927007;29;20171;-82
2023/05/05 02:09:37;;;;;;;6.03;4.47;;;17.20;10.60;;;;;;4923705;29;20158;-85
2023/05/05 02:12:06;;;;;;;5.93;4.53;;;17.00;15.80;;;;;;4921574;29;20549;-81
2023/05/05 02:14:33;;;;;;;6.83;4.03;;;16.90;20.40;;;;;;4920739;29;20571;-82
2023/05/05 02:17:00;;;;;;;4.97;4.23;;;16.80;24.50;;;;;;4918784;29;20244;-86
2023/05/05 02:19:29;;;;;;;5.80;4.03;;;16.70;27.70;;;;;;4923062;29;20172;-85
2023/05/05 02:21:57;;;;;;;5.43;4.17;;;16.60;29.70;;;;;;4923296;29;20169;-83
2023/05/05 02:24:23;;;;;;;5.47;4.77;;;16.50;33.30;;;;;;4921451;29;20638;-84
2023/05/05 02:26:51;;;;;;;5.40;4.50;;;16.50;34.80;;;;;;4922287;29;20599;-85
2023/05/05 02:29:34;;;;;;;5.23;4.57;;;16.40;35.10;;;;;;4925072;29;20180;-82
2023/05/05 02:32:08;;;;;;;5.57;4.70;;;16.40;37.70;;;;;;4923153;29;20242;-86
2023/05/05 02:34:38;;;;;;;4.93;4.43;;;16.30;41.80;;;;;;4923864;29;20214;-79
2023/05/05 02:37:08;;;;;;;7.80;4.73;;;16.20;44.00;;;;;;4933695;29;20223;-82
2023/05/05 02:39:50;;;;;;;6.20;4.60;;;16.30;44.50;;;;;;4937891;29;20175;-79
2023/05/05 02:42:19;;;;;;;7.27;4.60;;;16.30;44.80;;;;;;4935730;29;20183;-82
2023/05/05 02:44:46;;;;;;;7.30;5.17;;;16.20;45.40;;;;;;4936820;29;20184;-82
2023/05/05 02:47:12;;;;;;;7.93;5.30;;;16.40;44.60;;;;;;4933067;29;20241;-80
2023/05/05 02:49:38;;;;;;;9.33;5.40;;;16.50;40.10;;;;;;4937180;29;20209;-81
2023/05/05 02:52:08;;;;;;;6.70;4.97;;;16.40;40.90;;;;;;4937557;29;20179;-82
2023/05/05 02:54:36;;;;;;;6.60;5.10;;;16.40;40.40;;;;;;4931129;29;20292;-82
2023/05/05 02:57:02;;;;;;;5.90;5.10;;;16.40;38.80;;;;;;4936949;29;20674;-80
2023/05/05 03:00:12;;;;;;;8.37;5.70;;;16.40;39.50;;;;;;4936880;29;20196;-80
2023/05/05 03:03:02;;;;;;;5.67;5.17;;;16.20;44.90;;;;;;4932923;29;20184;-84
2023/05/05 03:05:53;;;;;;;6.83;5.53;;;16.20;48.30;;;;;;4942658;29;20162;-80
2023/05/05 03:08:30;;;;;;;6.57;5.27;;;16.10;52.70;;;;;;4928763;29;20199;-84
2023/05/05 03:11:06;;;;;;;6.47;5.83;;;15.90;56.30;;;;;;4926570;29;20194;-83
2023/05/05 03:13:38;;;;;;;6.90;5.50;;;15.80;59.30;;;;;;4926626;29;20196;-83
2023/05/05 03:16:06;;;;;;;7.93;6.00;;;15.70;63.00;;;;;;4926673;29;20225;-82
2023/05/05 03:18:36;;;;;;;8.67;5.93;;;15.70;66.90;;;;;;4930765;29;20295;-83
2023/05/05 03:21:08;;;;;;;9.97;7.10;;;15.70;68.30;;;;;;4928118;29;20245;-80
2023/05/05 03:23:39;;;;;;;8.37;6.93;;;15.60;70.20;;;;;;4924512;29;20257;-85
2023/05/05 03:26:11;;;;;;;7.77;6.63;;;15.70;70.00;;;;;;4942882;29;20162;-84
2023/05/05 03:28:40;;;;;;;7.47;6.67;;;15.70;70.30;;;;;;4942676;29;20185;-81
2023/05/05 03:31:12;;;;;;;7.67;6.93;;;15.70;71.20;;;;;;4941927;29;20222;-82
2023/05/05 03:33:38;;;;;;;8.27;6.87;;;15.60;72.30;;;;;;4930038;29;20182;-83
2023/05/05 03:36:03;;;;;;;8.97;7.10;;;15.70;72.60;;;;;;4919554;29;20232;-83
2023/05/05 03:38:29;;;;;;;9.67;7.07;;;15.60;74.50;;;;;;4919859;29;20255;-80
2023/05/05 03:40:55;;;;;;;7.97;7.07;;;15.60;76.30;;;;;;4919431;29;20181;-85
2023/05/05 03:43:21;;;;;;;10.70;7.33;;;15.60;75.70;;;;;;4919166;29;20183;-80
2023/05/05 03:45:46;;;;;;;8.10;7.03;;;15.60;76.50;;;;;;4919249;29;20178;-80
2023/05/05 03:48:13;;;;;;;9.23;7.53;;;15.70;75.80;;;;;;4918772;29;20600;-78
2023/05/05 03:50:44;;;;;;;9.00;7.20;;;15.60;76.10;;;;;;4918728;29;20170;-79
2023/05/05 03:53:10;;;;;;;8.63;7.30;;;15.60;78.20;;;;;;4917660;29;20197;-82
2023/05/05 03:55:37;;;;;;;9.30;7.63;;;15.60;75.00;;;;;;4918692;29;20629;-82
2023/05/05 03:58:02;;;;;;;8.00;7.20;;;15.70;72.10;;;;;;4918856;29;20169;-84
2023/05/05 04:00:29;;;;;;;9.13;7.23;;;15.60;74.20;;;;;;4919249;29;20171;-80
2023/05/05 04:02:55;;;;;;;8.70;7.37;;;15.70;71.90;;;;;;4918830;29;20252;-82
2023/05/05 04:05:21;;;;;;;9.33;8.23;;;15.70;71.20;;;;;;4919507;29;20579;-82
2023/05/05 04:07:47;;;;;;;11.20;7.97;;;15.70;71.30;;;;;;4918740;29;20685;-80
2023/05/05 04:10:13;;;;;;;9.83;8.10;;;15.80;72.80;;;;;;4917551;29;20185;-85
2023/05/05 04:12:38;;;;;;;9.47;8.47;;;15.90;68.50;;;;;;4918185;29;20170;-86
2023/05/05 04:15:05;;;;;;;9.30;8.30;;;15.90;65.80;;;;;;4919022;29;20207;-84
2023/05/05 04:17:31;;;;;;;9.77;8.17;;;15.90;65.20;;;;;;4921902;29;20224;-82
2023/05/05 04:19:57;;;;;;;9.57;8.40;;;15.90;67.00;;;;;;4920051;29;20626;-83
2023/05/05 04:22:22;;;;;;;9.67;8.50;;;15.80;69.30;;;;;;4920074;29;20181;-88
2023/05/05 04:24:48;;;;;;;8.90;8.00;;;15.70;73.70;;;;;;4918489;29;20173;-81
2023/05/05 04:27:14;;;;;;;11.83;8.53;;;15.70;74.10;;;;;;4918418;29;20181;-82
2023/05/05 04:29:40;;;;;;;10.93;8.60;;;15.60;78.00;;;;;;4916860;29;20186;-84
2023/05/05 04:32:06;;;;;;;9.27;8.27;;;15.70;78.70;;;;;;4918868;29;20209;-84
2023/05/05 04:34:31;;;;;;;11.73;7.97;;;15.70;79.00;;;;;;4917133;29;20322;-80
2023/05/05 04:36:57;;;;;;;10.10;8.63;;;15.80;78.40;;;;;;4916789;29;20175;-83
2023/05/05 04:39:23;;;;;;;10.20;9.20;;;15.80;76.70;;;;;;4922581;29;20303;-81
2023/05/05 04:41:48;;;;;;;14.10;10.10;;;15.90;75.00;;;;;;4924617;29;20188;-79
2023/05/05 04:44:14;;;;;;;15.73;12.03;;;15.90;74.50;;;;;;4921057;29;20187;-79
2023/05/05 04:46:40;;;;;;;10.90;9.80;;;15.90;73.10;;;;;;4919173;29;20193;-81
2023/05/05 04:49:06;;;;;;;10.03;8.40;;;15.90;74.10;;;;;;4918662;29;20249;-84
2023/05/05 04:51:32;;;;;;;11.43;8.27;;;15.90;73.10;;;;;;4917609;29;20599;-83
2023/05/05 04:53:58;;;;;;;11.10;8.43;;;15.90;74.40;;;;;;4918528;29;20227;-84
2023/05/05 04:56:24;;;;;;;11.47;8.57;;;15.90;75.10;;;;;;4917789;29;20207;-86
2023/05/05 04:58:50;;;;;;;11.97;8.73;;;15.80;74.60;;;;;;4919553;29;20176;-81
2023/05/05 05:01:16;;;;;;;12.47;8.97;;;15.80;76.60;;;;;;4919701;29;20170;-82
2023/05/05 05:03:41;;;;;;;14.37;8.90;;;15.70;80.00;;;;;;4917271;29;20210;-81
2023/05/05 05:06:09;;;;;;;11.13;8.73;;;15.70;81.80;;;;;;4918667;29;20187;-82
2023/05/05 05:08:35;;;;;;;14.60;8.30;;;15.70;81.60;;;;;;4923504;29;20281;-85
2023/05/05 05:11:01;;;;;;;10.00;8.53;;;15.70;82.50;;;;;;4922468;29;20210;-80
2023/05/05 05:13:26;;;;;;;10.43;8.67;;;15.80;84.50;;;;;;4930314;29;20290;-84
2023/05/05 05:15:52;;;;;;;10.97;8.57;;;15.80;83.40;;;;;;4938270;29;20205;-81
2023/05/05 05:18:19;;;;;;;12.37;8.67;;;15.80;82.00;;;;;;4936736;29;20174;-82
2023/05/05 05:20:46;;;;;;;13.40;8.40;;;15.90;82.50;;;;;;4932312;29;20170;-84
2023/05/05 05:23:12;;;;;;;12.13;8.23;;;15.90;83.10;;;;;;4920899;29;20167;-83
2023/05/05 05:25:41;;;;;;;11.50;8.23;;;15.90;84.50;;;;;;4929046;29;20171;-84
2023/05/05 05:28:07;;;;;;;9.53;7.97;;;15.90;84.60;;;;;;4922324;29;20282;-87
2023/05/05 05:30:34;;;;;;;11.17;8.37;;;16.10;81.30;;;;;;4921177;29;20217;-82
2023/05/05 05:33:01;;;;;;;9.23;7.80;;;16.20;79.10;;;;;;4922872;29;20242;-82
2023/05/05 05:35:26;;;;;;;11.60;7.87;;;16.30;74.50;;;;;;4921798;29;20206;-88
2023/05/05 05:37:52;;;;;;;12.90;8.90;;;16.40;70.50;;;;;;4921435;29;20178;-84
2023/05/05 05:40:18;;;;;;;14.70;8.73;;;16.50;68.20;;;;;;4919496;29;20177;-83
2023/05/05 05:42:45;;;;;;;10.43;8.13;;;16.50;68.10;;;;;;4923223;29;20158;-81
2023/05/05 05:45:10;;;;;;;10.33;8.13;;;16.50;68.00;;;;;;4923619;29;20198;-78
2023/05/05 05:47:36;;;;;;;11.70;8.17;;;16.40;71.70;;;;;;4925467;29;20182;-85
2023/05/05 05:50:03;;;;;;;14.97;8.77;;;16.40;72.60;;;;;;4926490;29;20240;-85
2023/05/05 05:52:30;;;;;;;14.50;8.40;;;16.50;71.70;;;;;;4947743;29;20208;-85
2023/05/05 05:54:55;;;;;;;10.73;8.30;;;16.40;73.00;;;;;;4942024;29;20228;-84
2023/05/05 05:57:23;;;;;;;14.20;8.90;;;16.30;74.80;;;;;;4938891;29;20197;-85
2023/05/05 05:59:49;;;;;;;12.07;8.97;;;16.30;76.20;;;;;;4936204;29;20184;-86
2023/05/05 06:02:15;;;;;;;13.43;8.77;;;16.30;76.20;;;;;;4937134;29;20184;-87
2023/05/05 06:04:41;;;;;;;13.33;8.30;;;16.30;76.80;;;;;;4947092;28;20166;-83
2023/05/05 06:07:06;;;;;;;12.13;8.97;;;16.30;78.30;;;;;;4947075;29;20200;-79
2023/05/05 06:09:32;;;;;;;13.17;8.60;;;16.40;78.30;;;;;;4936601;29;20184;-81
2023/05/05 06:11:58;;;;;;;13.20;8.27;;;16.50;76.50;;;;;;4940405;29;20167;-83
2023/05/05 06:14:27;;;;;;;11.07;8.40;;;16.60;75.90;;;;;;4941791;29;20649;-85
2023/05/05 06:16:55;;;;;;;14.10;8.90;;;16.80;70.60;;;;;;4938859;29;20189;-80
2023/05/05 06:19:21;;;;;;;11.70;8.37;;;16.90;64.90;;;;;;4938404;29;20165;-81
2023/05/05 06:21:46;;;;;;;11.87;7.83;;;16.80;64.70;;;;;;4937868;29;20263;-82
2023/05/05 06:24:14;;;;;;;10.87;7.73;;;16.90;64.30;;;;;;4942458;29;20169;-85
2023/05/05 06:26:41;;;;;;;14.57;8.37;;;16.90;61.80;;;;;;4961609;28;20187;-85
2023/05/05 06:29:07;;;;;;;13.23;7.90;;;16.90;60.40;;;;;;4960656;28;20169;-80
2023/05/05 06:31:32;;;;;;;11.57;7.53;;;16.80;60.90;;;;;;4956485;29;20225;-85
2023/05/05 06:34:01;;;;;;;10.33;8.30;;;16.90;62.20;;;;;;4945599;29;20237;-83
2023/05/05 06:36:36;;;;;;;9.73;7.73;;;17.00;60.90;;;;;;4938470;29;20737;-84
2023/05/05 06:39:02;;;;;;;9.90;7.43;;;17.00;60.30;;;;;;4938220;29;20199;-83
2023/05/05 06:41:28;;;;;;;10.37;8.10;;;17.10;59.10;;;;;;4937770;29;20197;-83
2023/05/05 06:43:53;;;;;;;12.00;7.90;;;17.20;56.10;;;;;;4937908;29;20169;-84
2023/05/05 06:46:19;;;;;;;15.40;8.30;;;17.20;55.30;;;;;;4937946;29;20190;-85
2023/05/05 06:48:45;;;;;;;15.80;7.60;;;17.20;57.10;;;;;;4937097;29;20270;-84
2023/05/05 06:51:10;;;;;;;11.50;7.80;;;17.30;51.20;;;;;;4937034;29;20601;-84
2023/05/05 06:53:36;;;;;;;10.03;7.50;;;17.50;49.70;;;;;;4938385;29;20664;-82
2023/05/05 06:56:02;;;;;;;9.07;6.77;;;17.50;49.80;;;;;;4938189;29;20697;-81
2023/05/05 06:58:27;;;;;;;10.63;7.47;;;17.50;50.60;;;;;;4938401;29;20166;-83
2023/05/05 07:00:53;;;;;;;10.17;7.63;;;17.70;47.10;;;;;;4938726;29;20701;-85
2023/05/05 07:03:19;;;;;;;11.43;7.40;;;17.80;44.40;;;;;;4937467;29;20657;-87
2023/05/05 07:05:45;;;;;;;16.83;8.03;;;17.60;43.60;;;;;;4938404;29;20179;-85
2023/05/05 07:08:10;;;;;;;9.30;7.17;;;17.60;46.50;;;;;;4939361;29;20219;-85
2023/05/05 07:10:36;;;;;;;10.90;7.00;;;17.70;47.50;;;;;;4937009;29;20643;-86
2023/05/05 07:13:02;;;;;;;15.90;7.13;;;17.80;43.50;;;;;;4936470;29;20729;-84
2023/05/05 07:15:27;;;;;;;11.70;7.80;;;18.00;40.50;;;;;;4937153;29;20562;-85
2023/05/05 07:17:53;;;;;;;8.33;6.43;;;18.10;34.90;;;;;;4936376;29;20229;-84
2023/05/05 07:20:20;;;;;;;14.77;7.90;;;18.20;29.40;;;;;;4938517;29;20567;-84
2023/05/05 07:22:45;;;;;;;12.27;7.33;;;18.30;26.60;;;;;;4936311;29;20185;-86
2023/05/05 07:25:11;;;;;;;11.23;7.03;;;18.40;23.90;;;;;;4939249;29;20183;-85
2023/05/05 07:27:38;;;;;;;8.10;6.53;;;18.50;21.10;;;;;;4937114;29;20594;-84
2023/05/05 07:30:05;;;;;;;9.97;6.77;;;18.30;26.60;;;;;;4937476;29;20548;-84
2023/05/05 07:32:32;;;;;;;10.17;6.90;;;18.40;27.00;;;;;;4941659;29;20211;-84
2023/05/05 07:34:59;;;;;;;10.23;6.80;;;18.40;26.00;;;;;;4942085;29;20282;-84
2023/05/05 07:37:26;;;;;;;11.17;7.00;;;18.30;25.70;;;;;;4940125;29;20177;-85
2023/05/05 07:39:55;;;;;;;10.53;6.73;;;18.30;27.80;;;;;;4948360;29;20179;-85
2023/05/05 07:42:20;;;;;;;8.23;6.53;;;18.20;29.90;;;;;;4944000;29;20181;-83
2023/05/05 07:44:46;;;;;;;10.30;6.97;;;18.20;30.00;;;;;;4943643;29;20185;-82
2023/05/05 07:47:12;;;;;;;9.03;6.07;;;18.20;29.00;;;;;;4941071;29;20176;-85
2023/05/05 07:49:37;;;;;;;11.20;7.03;;;18.30;29.40;;;;;;4939492;29;20640;-84
2023/05/05 07:52:03;;;;;;;10.30;6.23;;;18.40;27.00;;;;;;4936558;29;20263;-86
2023/05/05 07:54:29;;;;;;;12.03;6.70;;;18.60;20.10;;;;;;4937427;29;20173;-82
2023/05/05 07:56:56;;;;;;;9.30;5.90;;;18.70;13.30;;;;;;4940589;29;20524;-80
2023/05/05 07:59:21;;;;;;;11.37;6.50;;;18.70;13.20;;;;;;4936203;29;20170;-81
2023/05/05 08:01:47;;;;;;;8.30;5.60;;;18.50;17.90;;;;;;4937546;29;20179;-85
2023/05/05 08:04:13;;;;;;;12.63;6.27;;;18.60;15.40;;;;;;4937409;29;20282;-83
2023/05/05 08:06:38;;;;;;;8.03;5.70;;;18.40;19.50;;;;;;4937562;29;20184;-84
2023/05/05 08:09:04;;;;;;;9.33;5.47;;;18.30;20.80;;;;;;4936675;29;20662;-82
2023/05/05 08:11:30;;;;;;;9.97;5.77;;;18.20;26.50;;;;;;4936863;29;20718;-84
2023/05/05 08:13:55;;;;;;;8.87;5.90;;;18.10;27.60;;;;;;4936039;29;20193;-85
2023/05/05 08:16:21;;;;;;;7.87;5.30;;;18.20;28.60;;;;;;4940165;29;20299;-83
2023/05/05 08:18:48;;;;;;;9.40;5.37;;;18.20;28.90;;;;;;4944235;29;20206;-85
2023/05/05 08:21:14;;;;;;;9.10;5.20;;;18.30;25.90;;;;;;4938705;29;20188;-85
2023/05/05 08:23:40;;;;;;;7.93;5.00;;;18.50;20.20;;;;;;4938489;29;20171;-85
2023/05/05 08:26:10;;;;;;;9.47;5.00;;;18.50;18.10;;;;;;4923077;29;20185;-84
2023/05/05 08:28:36;;;;;;;8.70;5.20;;;18.80;8.00;;;;;;4940338;29;20182;-86
2023/05/05 08:31:03;;;;;;;8.47;5.40;;;18.70;9.90;;;;;;4950056;29;20186;-80
2023/05/05 08:33:30;;;;;;;7.20;5.10;;;18.60;12.80;;;;;;4956821;29;20171;-84
2023/05/05 08:35:56;;;;;;;11.37;6.10;;;18.80;9.50;;;;;;4956491;29;20294;-84
2023/05/05 08:38:22;;;;;;;11.33;6.30;;;18.60;15.60;;;;;;4936280;29;20656;-81
2023/05/05 08:40:50;;;;;;;11.73;6.87;;;18.50;33.40;;;;;;4935995;29;20167;-82
2023/05/05 08:43:19;;;;;;;9.70;6.80;;;18.50;38.40;;;;;;4936207;29;20616;-85
2023/05/05 08:45:45;;;;;;;8.93;7.10;;;18.50;42.50;;;;;;4936329;29;20176;-86
2023/05/05 08:48:12;;;;;;;11.07;7.73;;;18.40;48.80;;;;;;4935953;29;20174;-81
2023/05/05 08:50:38;;;;;;;8.00;7.10;;;18.30;48.40;;;;;;4935949;29;20316;-81
2023/05/05 08:53:15;;;;;;;10.70;8.33;;;18.20;53.60;;;;;;4936472;29;20252;-82
2023/05/05 08:55:54;;;;;;;11.37;9.30;;;18.10;62.10;;;;;;4936894;29;20204;-86
2023/05/05 08:58:22;;;;;;;10.93;9.10;;;18.00;65.60;;;;;;4937091;29;20172;-84
2023/05/05 09:00:49;;;;;;;13.43;10.33;;;17.90;74.70;;;;;;4940356;29;20180;-83
2023/05/05 09:03:16;;;;;;;15.40;10.43;;;17.80;80.40;;;;;;4941238;29;20180;-85
2023/05/05 09:05:43;;;;;;;15.60;10.77;;;17.90;80.20;;;;;;4942049;29;20180;-85
2023/05/05 09:08:12;;;;;;;14.30;10.83;;;17.90;72.20;;;;;;4951670;28;20181;-84
2023/05/05 09:10:42;;;;;;;12.43;10.20;;;18.00;70.80;;;;;;4962638;28;20179;-85
2023/05/05 09:13:08;;;;;;;15.93;9.70;;;17.90;71.60;;;;;;4963402;28;20237;-85
2023/05/05 09:15:34;;;;;;;13.47;10.03;;;17.90;63.90;;;;;;4961323;28;20213;-84
2023/05/05 09:18:00;;;;;;;11.57;9.20;;;17.80;65.30;;;;;;4943297;29;20269;-85
2023/05/05 09:20:33;;;;;;;12.20;7.97;;;17.70;65.90;;;;;;4940812;29;20180;-85
2023/05/05 09:23:07;;;;;;;11.60;8.27;;;17.60;66.80;;;;;;4940343;29;20168;-84
2023/05/05 09:25:33;;;;;;;20.57;9.00;;;17.70;68.80;;;;;;4940450;29;20192;-83
2023/05/05 09:28:11;;;;;;;13.30;8.10;;;17.70;66.30;;;;;;4943541;28;20182;-82
2023/05/05 09:30:38;;;;;;;10.77;7.37;;;17.70;65.60;;;;;;4962954;28;20196;-84
2023/05/05 09:33:03;;;;;;;13.57;7.53;;;17.70;63.50;;;;;;4961020;28;20180;-81
2023/05/05 09:35:53;;;;;;;8.43;7.23;;;17.80;59.60;;;;;;4955777;29;20214;-81
2023/05/05 09:38:23;;;;;;;10.50;6.77;;;18.10;59.20;;;;;;4946304;29;20181;-84
2023/05/05 09:40:51;;;;;;;7.20;5.73;;;18.30;48.20;;;;;;4941015;29;20651;-86
2023/05/05 09:43:22;;;;;;;7.43;5.80;;;18.20;42.20;;;;;;4939999;29;20170;-80
2023/05/05 09:45:49;;;;;;;7.60;5.40;;;18.20;40.70;;;;;;4938043;29;20324;-85
2023/05/05 09:48:26;;;;;;;8.13;5.40;;;18.20;38.80;;;;;;4939177;29;20178;-86
2023/05/05 09:50:53;;;;;;;9.37;5.53;;;18.00;39.60;;;;;;4941240;29;20639;-86
2023/05/05 09:53:21;;;;;;;9.17;5.20;;;18.10;37.90;;;;;;4942144;29;20234;-83
2023/05/05 09:55:54;;;;;;;10.67;5.60;;;18.00;38.50;;;;;;4941266;29;20653;-83
2023/05/05 09:58:22;;;;;;;8.87;4.90;;;18.20;35.80;;;;;;4940885;29;20170;-85
2023/05/05 10:00:49;;;;;;;9.83;4.70;;;18.20;40.10;;;;;;4943126;29;20177;-83
2023/05/05 10:03:15;;;;;;;6.37;4.30;;;18.30;36.70;;;;;;4940759;29;20181;-81
2023/05/05 10:05:53;;;;;;;8.43;3.80;;;18.30;34.50;;;;;;4942809;29;20171;-83
2023/05/05 10:08:30;;;;;;;9.20;4.00;;;18.50;23.50;;;;;;4939177;29;20204;-84
2023/05/05 10:11:05;;;;;;;10.47;4.20;;;18.50;19.70;;;;;;4942324;29;20207;-84
2023/05/05 10:13:39;;;;;;;8.37;4.50;;;18.60;18.80;;;;;;4940838;29;20241;-85
2023/05/05 10:16:08;;;;;;;8.40;3.90;;;18.60;25.10;;;;;;4940220;29;20303;-86
2023/05/05 10:18:34;;;;;;;10.07;3.70;;;18.60;19.80;;;;;;4938083;29;20173;-85
2023/05/05 10:21:02;;;;;;;9.73;3.40;;;18.50;19.00;;;;;;4940739;29;20188;-84
2023/05/05 10:23:56;;;;;;;8.10;3.47;;;18.40;18.70;;;;;;4938494;29;20233;-84
2023/05/05 10:26:24;;;;;;;9.27;3.60;;;18.50;13.50;;;;;;4939248;29;20173;-80
2023/05/05 10:28:54;;;;;;;7.97;3.67;;;18.40;15.60;;;;;;4938898;29;20179;-83
2023/05/05 10:31:28;;;;;;;7.87;3.57;;;18.50;19.00;;;;;;4954507;29;20186;-84
2023/05/05 10:34:01;;;;;;;10.53;3.90;;;18.50;16.80;;;;;;4938074;29;20176;-85
2023/05/05 10:36:28;;;;;;;10.27;4.10;;;18.50;18.30;;;;;;4939826;29;20201;-86
2023/05/05 10:38:57;;;;;;;7.63;3.73;;;18.50;22.10;;;;;;4939693;29;20227;-84
2023/05/05 10:41:27;;;;;;;7.63;3.60;;;18.50;21.40;;;;;;4939690;29;20187;-84
2023/05/05 10:43:57;;;;;;;8.93;4.07;;;18.40;16.30;;;;;;4941253;29;20253;-85
2023/05/05 10:46:27;;;;;;;8.83;3.60;;;18.10;23.50;;;;;;4940307;29;20178;-85
2023/05/05 10:49:11;;;;;;;5.97;3.50;;;18.20;24.70;;;;;;4938856;29;20267;-85
2023/05/05 10:51:51;;;;;;;9.83;3.77;;;18.20;26.70;;;;;;4939215;29;20194;-85
2023/05/05 10:54:19;;;;;;;8.03;3.70;;;18.30;26.20;;;;;;4939037;29;20168;-84
2023/05/05 10:56:46;;;;;;;8.83;3.87;;;18.30;24.70;;;;;;4939072;29;20201;-83
2023/05/05 10:59:37;;;;;;;8.07;3.80;;;18.40;22.20;;;;;;4952809;29;20171;-84
2023/05/05 11:02:25;;;;;;;8.13;3.63;;;18.50;19.60;;;;;;4939205;29;20178;-84
2023/05/05 11:05:09;;;;;;;7.07;3.83;;;18.30;21.80;;;;;;4938900;29;20652;-82
2023/05/05 11:07:38;;;;;;;8.33;3.80;;;18.20;24.40;;;;;;4939334;29;20216;-84
2023/05/05 11:10:05;;;;;;;8.73;4.30;;;18.20;26.10;;;;;;4953767;29;20181;-85
2023/05/05 11:12:52;;;;;;;9.50;4.00;;;18.20;29.30;;;;;;4939063;29;20250;-83
2023/05/05 11:15:29;;;;;;;8.73;3.93;;;18.10;29.60;;;;;;4938637;29;20215;-83
2023/05/05 11:18:00;;;;;;;8.53;3.57;;;18.20;25.90;;;;;;4938651;29;20185;-80
2023/05/05 11:20:55;;;;;;;6.80;3.53;;;18.20;24.10;;;;;;4939891;29;20264;-83
2023/05/05 11:23:21;;;;;;;8.10;3.40;;;18.10;22.00;;;;;;4955727;28;20188;-83
2023/05/05 11:25:47;;;;;;;9.30;3.70;;;18.00;23.30;;;;;;4958371;29;20181;-81
2023/05/05 11:28:15;;;;;;;8.17;3.30;;;18.10;24.70;;;;;;4951847;29;20218;-82
2023/05/05 11:30:58;;;;;;;8.00;3.83;;;18.30;19.60;;;;;;4968807;29;20190;-82
2023/05/05 11:33:35;;;;;;;8.37;3.73;;;18.50;18.80;;;;;;4957266;29;20269;-83
2023/05/05 11:36:08;;;;;;;8.57;3.40;;;18.40;13.10;;;;;;4954580;29;20688;-84
2023/05/05 11:38:52;;;;;;;6.23;2.47;;;18.40;11.50;;;;;;4956974;29;20190;-85
2023/05/05 11:41:33;;;;;;;5.47;2.13;;;18.40;1.00;;;;;;4942380;29;20233;-82
2023/05/05 11:44:12;;;;;;;5.93;2.10;;;18.20;1.00;;;;;;4970019;29;20191;-85
2023/05/05 11:46:58;;;;;;;5.07;2.47;;;18.20;4.20;;;;;;4943389;28;20257;-80
2023/05/05 11:49:29;;;;;;;4.23;2.00;;;18.40;1.00;;;;;;4964912;28;20280;-80
2023/05/05 11:52:05;;;;;;;4.63;2.10;;;18.80;1.00;;;;;;4986451;28;20230;-81
2023/05/05 11:54:33;;;;;;;1.97;0.90;;;19.00;1.00;;;;;;4959071;28;20652;-84
2023/05/05 11:57:03;;;;;;;3.47;1.20;;;18.90;1.00;;;;;;4956404;29;20184;-83
2023/05/05 11:59:33;;;;;;;4.20;1.20;;;19.00;1.00;;;;;;4954609;29;20187;-82
2023/05/05 12:02:00;;;;;;;4.63;1.53;;;18.90;1.00;;;;;;4956187;28;20197;-84
2023/05/05 12:04:26;;;;;;;4.53;1.50;;;18.80;1.00;;;;;;4958315;28;20171;-82
2023/05/05 12:06:51;;;;;;;5.13;1.60;;;18.90;1.00;;;;;;4960500;28;20288;-85
2023/05/05 12:09:26;;;;;;;3.13;1.13;;;19.10;1.00;;;;;;4960970;28;20596;-86
2023/05/05 12:11:52;;;;;;;2.73;1.60;;;19.10;1.00;;;;;;4970634;28;20153;-82
2023/05/05 12:14:19;;;;;;;4.80;1.63;;;19.00;1.00;;;;;;4976289;28;20442;-80
2023/05/05 12:17:09;;;;;;;6.30;2.43;;;19.00;1.00;;;;;;4968370;29;20220;-83
2023/05/05 12:19:47;;;;;;;5.13;1.80;;;19.00;1.00;;;;;;4963267;28;20185;-87
2023/05/05 12:22:25;;;;;;;5.57;1.80;;;19.00;1.00;;;;;;4956796;28;20214;-83
2023/05/05 12:24:53;;;;;;;4.97;1.80;;;18.90;1.00;;;;;;4960360;29;20164;-84
2023/05/05 12:27:19;;;;;;;3.97;1.60;;;18.80;1.00;;;;;;4938600;29;20200;-84
2023/05/05 12:29:45;;;;;;;5.47;2.13;;;18.80;1.00;;;;;;4954773;29;20727;-85
2023/05/05 12:32:20;;;;;;;7.63;2.17;;;18.70;1.00;;;;;;4958563;28;20181;-82
2023/05/05 12:34:47;;;;;;;5.07;1.90;;;18.70;13.60;;;;;;4975367;28;20229;-82
2023/05/05 12:37:15;;;;;;;5.47;1.83;;;18.60;21.10;;;;;;4975433;28;20182;-81
2023/05/05 12:39:40;;;;;;;5.33;1.70;;;18.50;2.50;;;;;;4975286;28;20179;-85
2023/05/05 12:42:12;;;;;;;5.20;1.90;;;18.50;24.70;;;;;;4961749;29;20660;-85
2023/05/05 12:44:40;;;;;;;5.50;2.00;;;18.70;18.40;;;;;;4955333;29;20179;-83
2023/05/05 12:47:06;;;;;;;4.70;1.93;;;18.60;1.00;;;;;;4950129;29;20258;-85
2023/05/05 12:49:53;;;;;;;5.30;1.90;;;18.70;4.80;;;;;;4952847;29;20193;-84
2023/05/05 12:52:19;;;;;;;5.77;1.90;;;18.90;1.00;;;;;;4953977;28;20211;-85
2023/05/05 12:54:53;;;;;;;5.40;2.33;;;19.00;1.00;;;;;;4955931;29;20175;-83